sensor_id;sensor_type;location;lat;lon;timestamp;pressure;altitude;pressure_sealevel;temperature;humidity
51369;BME280;37459;51.416;5.502;2022-12-05T00:01:20;101034.59;;;1.45;98.12
51369;BME280;37459;51.416;5.502;2022-12-05T00:03:48;101036.75;;;1.41;98.39
51369;BME280;37459;51.416;5.502;2022-12-05T00:06:15;101039.78;;;1.47;97.96
51369;BME280;37459;51.416;5.502;2022-12-05T00:08:42;101043.13;;;1.49;98.05
51369;BME280;37459;51.416;5.502;2022-12-05T00:11:10;101038.13;;;1.46;98.29
51369;BME280;37459;51.416;5.502;2022-12-05T00:13:37;101024.88;;;1.36;99.07
51369;BME280;37459;51.416;5.502;2022-12-05T00:16:06;101047.06;;;1.44;99.14
51369;BME280;37459;51.416;5.502;2022-12-05T00:18:35;101038.41;;;1.42;98.66
51369;BME280;37459;51.416;5.502;2022-12-05T00:21:03;101045.53;;;1.42;98.98
51369;BME280;37459;51.416;5.502;2022-12-05T00:23:29;101046.09;;;1.46;98.74
51369;BME280;37459;51.416;5.502;2022-12-05T00:25:56;101044.81;;;1.50;99.02
51369;BME280;37459;51.416;5.502;2022-12-05T00:28:23;101046.78;;;1.48;98.84
51369;BME280;37459;51.416;5.502;2022-12-05T00:30:49;101047.06;;;1.44;98.67
51369;BME280;37459;51.416;5.502;2022-12-05T00:33:16;101041.19;;;1.41;99.05
51369;BME280;37459;51.416;5.502;2022-12-05T00:35:44;101047.06;;;1.44;98.70
51369;BME280;37459;51.416;5.502;2022-12-05T00:38:10;101023.22;;;1.35;98.75
51369;BME280;37459;51.416;5.502;2022-12-05T00:40:37;101040.34;;;1.50;98.63
51369;BME280;37459;51.416;5.502;2022-12-05T00:43:03;101042.00;;;1.51;98.73
51369;BME280;37459;51.416;5.502;2022-12-05T00:45:30;101029.72;;;1.50;98.62
51369;BME280;37459;51.416;5.502;2022-12-05T00:47:56;101032.50;;;1.49;98.86
51369;BME280;37459;51.416;5.502;2022-12-05T00:50:23;101035.84;;;1.51;99.11
51369;BME280;37459;51.416;5.502;2022-12-05T00:52:51;101035.84;;;1.51;98.71
51369;BME280;37459;51.416;5.502;2022-12-05T00:55:17;101014.94;;;1.38;99.40
51369;BME280;37459;51.416;5.502;2022-12-05T00:57:44;101027.78;;;1.42;99.36
51369;BME280;37459;51.416;5.502;2022-12-05T01:00:11;101036.16;;;1.48;99.50
51369;BME280;37459;51.416;5.502;2022-12-05T01:02:37;101045.09;;;1.47;99.17
51369;BME280;37459;51.416;5.502;2022-12-05T01:05:05;101037.56;;;1.42;99.68
51369;BME280;37459;51.416;5.502;2022-12-05T01:07:31;101043.44;;;1.46;99.91
51369;BME280;37459;51.416;5.502;2022-12-05T01:09:59;101042.69;;;1.53;99.67
51369;BME280;37459;51.416;5.502;2022-12-05T01:12:26;101051.81;;;1.51;99.74
51369;BME280;37459;51.416;5.502;2022-12-05T01:14:53;101049.44;;;1.48;99.20
51369;BME280;37459;51.416;5.502;2022-12-05T01:17:19;101052.09;;;1.48;99.94
51369;BME280;37459;51.416;5.502;2022-12-05T01:19:46;101049.53;;;1.56;99.83
51369;BME280;37459;51.416;5.502;2022-12-05T01:22:12;101053.63;;;1.50;100.00
51369;BME280;37459;51.416;5.502;2022-12-05T01:24:39;101054.75;;;1.48;99.83
51369;BME280;37459;51.416;5.502;2022-12-05T01:27:07;101058.00;;;1.41;100.00
51369;BME280;37459;51.416;5.502;2022-12-05T01:29:33;101061.03;;;1.47;100.00
51369;BME280;37459;51.416;5.502;2022-12-05T01:32:00;101057.00;;;1.42;100.00
51369;BME280;37459;51.416;5.502;2022-12-05T01:34:26;101054.34;;;1.42;100.00
51369;BME280;37459;51.416;5.502;2022-12-05T01:36:53;101063.84;;;1.45;100.00
51369;BME280;37459;51.416;5.502;2022-12-05T01:39:20;101058.38;;;1.47;100.00
51369;BME280;37459;51.416;5.502;2022-12-05T01:41:48;101069.25;;;1.53;100.00
51369;BME280;37459;51.416;5.502;2022-12-05T01:47:20;101073.34;;;1.48;100.00
51369;BME280;37459;51.416;5.502;2022-12-05T01:49:49;101077.28;;;1.43;100.00
51369;BME280;37459;51.416;5.502;2022-12-05T01:52:18;101071.66;;;1.47;100.00
51369;BME280;37459;51.416;5.502;2022-12-05T01:54:47;101076.41;;;1.43;100.00
51369;BME280;37459;51.416;5.502;2022-12-05T01:57:15;101071.97;;;1.43;100.00
51369;BME280;37459;51.416;5.502;2022-12-05T01:59:44;101076.97;;;1.47;100.00
51369;BME280;37459;51.416;5.502;2022-12-05T02:02:12;101071.41;;;1.50;100.00
51369;BME280;37459;51.416;5.502;2022-12-05T02:04:45;101086.28;;;1.60;100.00
51369;BME280;37459;51.416;5.502;2022-12-05T02:07:15;101081.41;;;1.56;100.00
51369;BME280;37459;51.416;5.502;2022-12-05T02:09:44;101079.06;;;1.53;100.00
51369;BME280;37459;51.416;5.502;2022-12-05T02:12:11;101082.28;;;1.47;100.00
51369;BME280;37459;51.416;5.502;2022-12-05T02:14:51;101076.97;;;1.47;100.00
51369;BME280;37459;51.416;5.502;2022-12-05T02:17:27;101078.66;;;1.48;100.00
51369;BME280;37459;51.416;5.502;2022-12-05T02:20:09;101073.63;;;1.44;100.00
51369;BME280;37459;51.416;5.502;2022-12-05T02:22:51;101076.00;;;1.48;100.00
51369;BME280;37459;51.416;5.502;2022-12-05T02:25:44;101059.13;;;1.39;100.00
51369;BME280;37459;51.416;5.502;2022-12-05T02:28:34;101078.22;;;1.52;100.00
51369;BME280;37459;51.416;5.502;2022-12-05T02:31:14;101072.50;;;1.47;100.00
51369;BME280;37459;51.416;5.502;2022-12-05T02:33:45;101071.22;;;1.51;100.00
51369;BME280;37459;51.416;5.502;2022-12-05T02:36:16;101073.88;;;1.51;100.00
51369;BME280;37459;51.416;5.502;2022-12-05T02:38:51;101073.63;;;1.54;100.00
51369;BME280;37459;51.416;5.502;2022-12-05T02:41:27;101075.41;;;1.54;100.00
51369;BME280;37459;51.416;5.502;2022-12-05T02:44:00;101069.97;;;1.55;100.00
51369;BME280;37459;51.416;5.502;2022-12-05T02:46:31;101074.59;;;1.53;100.00
51369;BME280;37459;51.416;5.502;2022-12-05T02:49:03;101060.06;;;1.48;100.00
51369;BME280;37459;51.416;5.502;2022-12-05T02:51:34;101072.06;;;1.52;100.00
51369;BME280;37459;51.416;5.502;2022-12-05T02:54:07;101075.84;;;1.49;100.00
51369;BME280;37459;51.416;5.502;2022-12-05T02:56:36;101067.44;;;1.54;100.00
51369;BME280;37459;51.416;5.502;2022-12-05T02:59:02;101071.41;;;1.50;100.00
51369;BME280;37459;51.416;5.502;2022-12-05T03:01:31;101071.09;;;1.53;100.00
51369;BME280;37459;51.416;5.502;2022-12-05T03:03:59;101079.91;;;1.53;100.00
51369;BME280;37459;51.416;5.502;2022-12-05T03:06:29;101074.06;;;1.50;100.00
51369;BME280;37459;51.416;5.502;2022-12-05T03:09:00;101067.75;;;1.51;100.00
51369;BME280;37459;51.416;5.502;2022-12-05T03:11:30;101079.19;;;1.61;100.00
51369;BME280;37459;51.416;5.502;2022-12-05T03:14:00;101073.63;;;1.54;100.00
51369;BME280;37459;51.416;5.502;2022-12-05T03:16:33;101074.72;;;1.52;100.00
51369;BME280;37459;51.416;5.502;2022-12-05T03:19:05;101080.59;;;1.55;100.00
51369;BME280;37459;51.416;5.502;2022-12-05T03:21:38;101078.22;;;1.52;100.00
51369;BME280;37459;51.416;5.502;2022-12-05T03:24:08;101077.81;;;1.47;100.00
51369;BME280;37459;51.416;5.502;2022-12-05T03:26:45;101073.34;;;1.48;100.00
51369;BME280;37459;51.416;5.502;2022-12-05T03:29:24;101077.69;;;1.49;100.00
51369;BME280;37459;51.416;5.502;2022-12-05T03:32:01;101069.25;;;1.53;100.00
51369;BME280;37459;51.416;5.502;2022-12-05T03:34:41;101067.75;;;1.51;100.00
51369;BME280;37459;51.416;5.502;2022-12-05T03:37:11;101063.13;;;1.53;100.00
51369;BME280;37459;51.416;5.502;2022-12-05T03:39:43;101063.94;;;1.53;100.00
51369;BME280;37459;51.416;5.502;2022-12-05T03:42:15;101062.13;;;1.54;100.00
51369;BME280;37459;51.416;5.502;2022-12-05T03:44:46;101065.19;;;1.59;100.00
51369;BME280;37459;51.416;5.502;2022-12-05T03:47:20;101062.53;;;1.59;100.00
51369;BME280;37459;51.416;5.502;2022-12-05T03:49:51;101064.19;;;1.60;100.00
51369;BME280;37459;51.416;5.502;2022-12-05T03:52:22;101065.78;;;1.53;100.00
51369;BME280;37459;51.416;5.502;2022-12-05T03:54:53;101069.25;;;1.63;100.00
51369;BME280;37459;51.416;5.502;2022-12-05T03:57:23;101074.13;;;1.58;100.00
51369;BME280;37459;51.416;5.502;2022-12-05T03:59:55;101077.50;;;1.60;100.00
51369;BME280;37459;51.416;5.502;2022-12-05T04:02:29;101066.47;;;1.55;100.00
51369;BME280;37459;51.416;5.502;2022-12-05T04:04:59;101073.81;;;1.71;100.00
51369;BME280;37459;51.416;5.502;2022-12-05T04:07:29;101075.78;;;1.69;100.00
51369;BME280;37459;51.416;5.502;2022-12-05T04:10:02;101071.91;;;1.63;100.00
51369;BME280;37459;51.416;5.502;2022-12-05T04:12:31;101072.88;;;1.62;100.00
51369;BME280;37459;51.416;5.502;2022-12-05T04:15:05;101070.34;;;1.60;100.00
51369;BME280;37459;51.416;5.502;2022-12-05T04:17:38;101074.56;;;1.63;100.00
51369;BME280;37459;51.416;5.502;2022-12-05T04:20:11;101075.78;;;1.69;100.00
51369;BME280;37459;51.416;5.502;2022-12-05T04:22:58;101076.78;;;1.68;100.00
51369;BME280;37459;51.416;5.502;2022-12-05T04:25:28;101067.31;;;1.55;100.00
51369;BME280;37459;51.416;5.502;2022-12-05T04:28:06;101078.88;;;1.64;100.00
51369;BME280;37459;51.416;5.502;2022-12-05T04:30:37;101085.03;;;1.64;100.00
51369;BME280;37459;51.416;5.502;2022-12-05T04:33:09;101085.88;;;1.65;100.00
51369;BME280;37459;51.416;5.502;2022-12-05T04:35:40;101086.28;;;1.70;100.00
51369;BME280;37459;51.416;5.502;2022-12-05T04:38:14;101087.94;;;1.71;100.00
51369;BME280;37459;51.416;5.502;2022-12-05T04:40:47;101088.09;;;1.70;100.00
51369;BME280;37459;51.416;5.502;2022-12-05T04:43:17;101089.91;;;1.69;100.00
51369;BME280;37459;51.416;5.502;2022-12-05T04:45:45;101095.91;;;1.71;100.00
51369;BME280;37459;51.416;5.502;2022-12-05T04:48:16;101091.19;;;1.65;100.00
51369;BME280;37459;51.416;5.502;2022-12-05T04:50:44;101088.94;;;1.70;100.00
51369;BME280;37459;51.416;5.502;2022-12-05T04:53:12;101095.38;;;1.68;100.00
51369;BME280;37459;51.416;5.502;2022-12-05T04:55:43;101094.25;;;1.70;100.00
51369;BME280;37459;51.416;5.502;2022-12-05T04:58:14;101101.66;;;1.67;100.00
51369;BME280;37459;51.416;5.502;2022-12-05T05:00:46;101099.69;;;1.69;100.00
51369;BME280;37459;51.416;5.502;2022-12-05T05:03:20;101101.53;;;1.68;100.00
51369;BME280;37459;51.416;5.502;2022-12-05T05:05:51;101097.22;;;1.67;100.00
51369;BME280;37459;51.416;5.502;2022-12-05T05:08:20;101094.25;;;1.70;100.00
51369;BME280;37459;51.416;5.502;2022-12-05T05:10:53;101094.81;;;1.74;100.00
51369;BME280;37459;51.416;5.502;2022-12-05T05:13:22;101098.72;;;1.70;100.00
51369;BME280;37459;51.416;5.502;2022-12-05T05:15:49;101093.09;;;1.73;100.00
51369;BME280;37459;51.416;5.502;2022-12-05T05:18:17;101100.94;;;1.74;100.00
51369;BME280;37459;51.416;5.502;2022-12-05T05:20:44;101083.63;;;1.60;100.00
51369;BME280;37459;51.416;5.502;2022-12-05T05:23:10;101098.88;;;1.68;100.00
51369;BME280;37459;51.416;5.502;2022-12-05T05:25:37;101109.06;;;1.73;100.00
51369;BME280;37459;51.416;5.502;2022-12-05T05:28:04;101107.22;;;1.73;100.00
51369;BME280;37459;51.416;5.502;2022-12-05T05:30:31;101099.56;;;1.70;100.00
51369;BME280;37459;51.416;5.502;2022-12-05T05:32:58;101109.75;;;1.75;100.00
51369;BME280;37459;51.416;5.502;2022-12-05T05:35:26;101103.88;;;1.71;100.00
51369;BME280;37459;51.416;5.502;2022-12-05T05:37:52;101109.88;;;1.73;100.00
51369;BME280;37459;51.416;5.502;2022-12-05T05:40:19;101108.22;;;1.72;100.00
51369;BME280;37459;51.416;5.502;2022-12-05T05:42:47;101120.53;;;1.73;100.00
51369;BME280;37459;51.416;5.502;2022-12-05T05:45:15;101118.84;;;1.72;100.00
51369;BME280;37459;51.416;5.502;2022-12-05T05:47:42;101100.13;;;1.64;100.00
51369;BME280;37459;51.416;5.502;2022-12-05T05:50:09;101116.19;;;1.72;100.00
51369;BME280;37459;51.416;5.502;2022-12-05T05:52:37;101114.50;;;1.71;100.00
51369;BME280;37459;51.416;5.502;2022-12-05T05:55:05;101120.09;;;1.78;100.00
51369;BME280;37459;51.416;5.502;2022-12-05T05:57:32;101110.13;;;1.80;100.00
51369;BME280;37459;51.416;5.502;2022-12-05T05:59:59;101106.66;;;1.79;100.00
51369;BME280;37459;51.416;5.502;2022-12-05T06:02:25;101114.63;;;1.79;100.00
51369;BME280;37459;51.416;5.502;2022-12-05T06:04:56;101115.44;;;1.80;100.00
51369;BME280;37459;51.416;5.502;2022-12-05T06:07:23;101122.75;;;1.78;100.00
51369;BME280;37459;51.416;5.502;2022-12-05T06:09:51;101121.22;;;1.75;100.00
51369;BME280;37459;51.416;5.502;2022-12-05T06:12:18;101125.94;;;1.81;100.00
51369;BME280;37459;51.416;5.502;2022-12-05T06:14:46;101127.91;;;1.79;100.00
51369;BME280;37459;51.416;5.502;2022-12-05T06:17:13;101121.63;;;1.80;100.00
51369;BME280;37459;51.416;5.502;2022-12-05T06:19:39;101130.25;;;1.92;100.00
51369;BME280;37459;51.416;5.502;2022-12-05T06:22:06;101123.03;;;1.84;100.00
51369;BME280;37459;51.416;5.502;2022-12-05T06:24:32;101118.81;;;1.82;100.00
51369;BME280;37459;51.416;5.502;2022-12-05T06:27:00;101127.47;;;1.84;100.00
51369;BME280;37459;51.416;5.502;2022-12-05T06:29:27;101129.31;;;1.83;100.00
51369;BME280;37459;51.416;5.502;2022-12-05T06:31:53;101130.38;;;1.91;100.00
51369;BME280;37459;51.416;5.502;2022-12-05T06:34:20;101131.06;;;1.93;100.00
51369;BME280;37459;51.416;5.502;2022-12-05T06:36:46;101134.34;;;1.87;100.00
51369;BME280;37459;51.416;5.502;2022-12-05T06:39:13;101108.78;;;1.76;100.00
51369;BME280;37459;51.416;5.502;2022-12-05T06:41:40;101098.06;;;1.58;100.00
51369;BME280;37459;51.416;5.502;2022-12-05T06:44:08;101135.88;;;1.79;100.00
51369;BME280;37459;51.416;5.502;2022-12-05T06:46:35;101134.22;;;1.78;100.00
51369;BME280;37459;51.416;5.502;2022-12-05T06:49:01;101136.88;;;1.78;100.00
51369;BME280;37459;51.416;5.502;2022-12-05T06:51:28;101135.88;;;1.79;100.00
51369;BME280;37459;51.416;5.502;2022-12-05T06:53:54;101133.94;;;1.81;100.00
51369;BME280;37459;51.416;5.502;2022-12-05T06:56:21;101131.56;;;1.78;100.00
51369;BME280;37459;51.416;5.502;2022-12-05T06:58:48;101134.38;;;1.77;100.00
51369;BME280;37459;51.416;5.502;2022-12-05T07:01:19;101136.84;;;1.88;100.00
51369;BME280;37459;51.416;5.502;2022-12-05T07:04:07;101141.25;;;1.97;100.00
51369;BME280;37459;51.416;5.502;2022-12-05T07:06:35;101140.31;;;1.89;100.00
51369;BME280;37459;51.416;5.502;2022-12-05T07:09:02;101152.66;;;1.90;100.00
51369;BME280;37459;51.416;5.502;2022-12-05T07:11:29;101148.59;;;1.85;100.00
51369;BME280;37459;51.416;5.502;2022-12-05T07:13:56;101147.91;;;1.83;100.00
51369;BME280;37459;51.416;5.502;2022-12-05T07:16:24;101160.25;;;1.84;100.00
51369;BME280;37459;51.416;5.502;2022-12-05T07:18:50;101151.81;;;1.89;100.00
51369;BME280;37459;51.416;5.502;2022-12-05T07:21:17;101169.69;;;1.97;100.00
51369;BME280;37459;51.416;5.502;2022-12-05T07:23:45;101166.63;;;1.92;100.00
51369;BME280;37459;51.416;5.502;2022-12-05T07:26:16;101170.56;;;1.88;100.00
51369;BME280;37459;51.416;5.502;2022-12-05T07:28:42;101168.22;;;1.84;100.00
51369;BME280;37459;51.416;5.502;2022-12-05T07:31:12;101172.53;;;1.85;100.00
51369;BME280;37459;51.416;5.502;2022-12-05T07:33:40;101172.41;;;1.87;100.00
51369;BME280;37459;51.416;5.502;2022-12-05T07:36:09;101182.47;;;1.93;100.00
51369;BME280;37459;51.416;5.502;2022-12-05T07:38:36;101181.19;;;1.88;100.00
51369;BME280;37459;51.416;5.502;2022-12-05T07:41:04;101178.53;;;1.88;100.00
51369;BME280;37459;51.416;5.502;2022-12-05T07:43:31;101176.88;;;1.87;100.00
51369;BME280;37459;51.416;5.502;2022-12-05T07:46:00;101179.25;;;1.90;100.00
51369;BME280;37459;51.416;5.502;2022-12-05T07:48:27;101167.66;;;1.81;100.00
51369;BME280;37459;51.416;5.502;2022-12-05T07:50:58;101175.88;;;1.88;100.00
51369;BME280;37459;51.416;5.502;2022-12-05T07:53:24;101177.03;;;1.85;100.00
51369;BME280;37459;51.416;5.502;2022-12-05T07:55:51;101186.66;;;1.86;100.00
51369;BME280;37459;51.416;5.502;2022-12-05T07:58:17;101194.09;;;1.82;100.00
51369;BME280;37459;51.416;5.502;2022-12-05T08:00:44;101185.25;;;1.82;100.00
51369;BME280;37459;51.416;5.502;2022-12-05T08:03:10;101181.59;;;1.93;100.00
51369;BME280;37459;51.416;5.502;2022-12-05T08:05:37;101192.06;;;2.59;100.00
51369;BME280;37459;51.416;5.502;2022-12-05T08:08:05;101194.16;;;3.19;100.00
51369;BME280;37459;51.416;5.502;2022-12-05T08:10:33;101195.38;;;3.25;100.00
51369;BME280;37459;51.416;5.502;2022-12-05T08:12:59;101200.56;;;3.08;100.00
51369;BME280;37459;51.416;5.502;2022-12-05T08:15:26;101204.44;;;2.96;100.00
51369;BME280;37459;51.416;5.502;2022-12-05T08:17:52;101211.19;;;2.91;100.00
51369;BME280;37459;51.416;5.502;2022-12-05T08:20:19;101212.28;;;2.80;100.00
51369;BME280;37459;51.416;5.502;2022-12-05T08:22:46;101209.06;;;2.76;100.00
51369;BME280;37459;51.416;5.502;2022-12-05T08:25:13;101212.19;;;2.72;100.00
51369;BME280;37459;51.416;5.502;2022-12-05T08:27:40;101215.28;;;2.67;100.00
51369;BME280;37459;51.416;5.502;2022-12-05T08:30:07;101225.09;;;2.66;100.00
51369;BME280;37459;51.416;5.502;2022-12-05T08:32:34;101218.78;;;2.67;100.00
51369;BME280;37459;51.416;5.502;2022-12-05T08:35:01;101231.72;;;2.62;100.00
51369;BME280;37459;51.416;5.502;2022-12-05T08:37:27;101232.69;;;2.61;100.00
51369;BME280;37459;51.416;5.502;2022-12-05T08:39:54;101235.66;;;2.58;100.00
51369;BME280;37459;51.416;5.502;2022-12-05T08:42:21;101236.94;;;2.54;100.00
51369;BME280;37459;51.416;5.502;2022-12-05T08:44:48;101223.22;;;2.49;100.00
51369;BME280;37459;51.416;5.502;2022-12-05T08:47:15;101227.84;;;2.47;100.00
51369;BME280;37459;51.416;5.502;2022-12-05T08:49:42;101229.81;;;2.45;100.00
51369;BME280;37459;51.416;5.502;2022-12-05T08:52:09;101227.16;;;2.45;100.00
51369;BME280;37459;51.416;5.502;2022-12-05T08:54:36;101228.16;;;2.44;100.00
51369;BME280;37459;51.416;5.502;2022-12-05T08:57:02;101233.47;;;2.44;100.00
51369;BME280;37459;51.416;5.502;2022-12-05T08:59:30;101226.31;;;2.44;100.00
51369;BME280;37459;51.416;5.502;2022-12-05T09:01:57;101236.13;;;2.44;100.00
51369;BME280;37459;51.416;5.502;2022-12-05T09:04:23;101243.69;;;2.49;100.00
51369;BME280;37459;51.416;5.502;2022-12-05T09:06:50;101240.19;;;2.48;100.00
51369;BME280;37459;51.416;5.502;2022-12-05T09:09:17;101242.84;;;2.48;100.00
51369;BME280;37459;51.416;5.502;2022-12-05T09:11:43;101254.19;;;2.50;100.00
51369;BME280;37459;51.416;5.502;2022-12-05T09:14:13;101249.56;;;2.80;100.00
51369;BME280;37459;51.416;5.502;2022-12-05T09:16:43;101255.72;;;2.98;100.00
51369;BME280;37459;51.416;5.502;2022-12-05T09:19:12;101234.97;;;3.02;100.00
51369;BME280;37459;51.416;5.502;2022-12-05T09:21:39;101261.00;;;3.08;100.00
51369;BME280;37459;51.416;5.502;2022-12-05T09:24:05;101254.66;;;2.91;100.00
51369;BME280;37459;51.416;5.502;2022-12-05T09:26:32;101264.84;;;2.78;100.00
51369;BME280;37459;51.416;5.502;2022-12-05T09:29:00;101262.69;;;2.81;100.00
51369;BME280;37459;51.416;5.502;2022-12-05T09:31:27;101259.19;;;2.81;100.00
51369;BME280;37459;51.416;5.502;2022-12-05T09:33:56;101265.56;;;2.70;100.00
51369;BME280;37459;51.416;5.502;2022-12-05T09:36:24;101265.44;;;2.72;100.00
51369;BME280;37459;51.416;5.502;2022-12-05T09:38:52;101266.31;;;2.62;100.00
51369;BME280;37459;51.416;5.502;2022-12-05T09:41:30;101234.63;;;2.41;100.00
51369;BME280;37459;51.416;5.502;2022-12-05T09:44:22;101277.81;;;2.63;100.00
51369;BME280;37459;51.416;5.502;2022-12-05T09:46:54;101278.63;;;2.63;100.00
51369;BME280;37459;51.416;5.502;2022-12-05T09:49:23;101267.97;;;2.63;100.00
51369;BME280;37459;51.416;5.502;2022-12-05T09:51:52;101275.28;;;2.61;100.00
51369;BME280;37459;51.416;5.502;2022-12-05T09:54:20;101271.34;;;2.65;100.00
51369;BME280;37459;51.416;5.502;2022-12-05T09:56:50;101270.50;;;2.65;100.00
51369;BME280;37459;51.416;5.502;2022-12-05T09:59:18;101275.38;;;2.70;100.00
51369;BME280;37459;51.416;5.502;2022-12-05T10:01:51;101274.69;;;2.67;100.00
51369;BME280;37459;51.416;5.502;2022-12-05T10:04:26;101275.66;;;2.66;100.00
51369;BME280;37459;51.416;5.502;2022-12-05T10:06:58;101272.31;;;2.64;100.00
51369;BME280;37459;51.416;5.502;2022-12-05T10:09:45;101276.84;;;3.45;100.00
51369;BME280;37459;51.416;5.502;2022-12-05T10:12:19;101256.31;;;3.64;100.00
51369;BME280;37459;51.416;5.502;2022-12-05T10:14:56;101274.53;;;3.68;100.00
51369;BME280;37459;51.416;5.502;2022-12-05T10:17:31;101274.41;;;3.52;100.00
51369;BME280;37459;51.416;5.502;2022-12-05T10:20:02;101272.44;;;3.36;100.00
51369;BME280;37459;51.416;5.502;2022-12-05T10:22:38;101277.69;;;3.28;100.00
51369;BME280;37459;51.416;5.502;2022-12-05T10:25:09;101274.94;;;3.20;100.00
51369;BME280;37459;51.416;5.502;2022-12-05T10:27:42;101274.00;;;3.11;100.00
51369;BME280;37459;51.416;5.502;2022-12-05T10:30:14;101276.13;;;3.07;100.00
51369;BME280;37459;51.416;5.502;2022-12-05T10:32:49;101272.63;;;3.07;100.00
51369;BME280;37459;51.416;5.502;2022-12-05T10:35:19;101281.22;;;3.01;100.00
51369;BME280;37459;51.416;5.502;2022-12-05T10:37:48;101273.31;;;2.91;100.00
51369;BME280;37459;51.416;5.502;2022-12-05T10:40:15;101271.72;;;2.98;100.00
51369;BME280;37459;51.416;5.502;2022-12-05T10:42:42;101276.25;;;2.88;100.00
51369;BME280;37459;51.416;5.502;2022-12-05T10:45:14;101281.19;;;2.83;100.00
51369;BME280;37459;51.416;5.502;2022-12-05T10:47:41;101276.47;;;2.77;100.00
51369;BME280;37459;51.416;5.502;2022-12-05T10:50:21;101267.09;;;2.73;100.00
51369;BME280;37459;51.416;5.502;2022-12-05T10:52:51;101275.91;;;2.73;100.00
51369;BME280;37459;51.416;5.502;2022-12-05T10:55:17;101277.75;;;2.73;100.00
51369;BME280;37459;51.416;5.502;2022-12-05T10:57:49;101281.91;;;2.75;100.00
51369;BME280;37459;51.416;5.502;2022-12-05T11:00:20;101275.06;;;2.73;100.00
51369;BME280;37459;51.416;5.502;2022-12-05T11:02:47;101267.78;;;2.75;100.00
51369;BME280;37459;51.416;5.502;2022-12-05T11:05:26;101272.41;;;2.73;100.00
51369;BME280;37459;51.416;5.502;2022-12-05T11:07:54;101262.06;;;2.70;100.00
51369;BME280;37459;51.416;5.502;2022-12-05T11:10:25;101266.25;;;2.72;100.00
51369;BME280;37459;51.416;5.502;2022-12-05T11:12:54;101265.94;;;2.75;100.00
51369;BME280;37459;51.416;5.502;2022-12-05T11:15:22;101263.44;;;2.74;100.00
51369;BME280;37459;51.416;5.502;2022-12-05T11:17:51;101263.72;;;2.71;100.00
51369;BME280;37459;51.416;5.502;2022-12-05T11:20:39;101274.38;;;2.71;100.00
51369;BME280;37459;51.416;5.502;2022-12-05T11:23:21;101261.66;;;2.64;100.00
51369;BME280;37459;51.416;5.502;2022-12-05T11:25:48;101270.06;;;2.70;100.00
51369;BME280;37459;51.416;5.502;2022-12-05T11:28:35;101277.03;;;2.71;100.00
51369;BME280;37459;51.416;5.502;2022-12-05T11:31:04;101272.38;;;3.72;100.00
51369;BME280;37459;51.416;5.502;2022-12-05T11:33:34;101268.91;;;3.98;100.00
51369;BME280;37459;51.416;5.502;2022-12-05T11:36:12;101272.13;;;3.83;99.99
51369;BME280;37459;51.416;5.502;2022-12-05T11:38:41;101263.63;;;3.62;98.15
51369;BME280;37459;51.416;5.502;2022-12-05T11:41:22;101266.31;;;3.44;98.40
51369;BME280;37459;51.416;5.502;2022-12-05T11:44:25;101263.91;;;3.33;99.32
51369;BME280;37459;51.416;5.502;2022-12-05T11:46:59;101270.06;;;3.33;99.46
51369;BME280;37459;51.416;5.502;2022-12-05T11:49:43;101266.41;;;3.34;98.80
51369;BME280;37459;51.416;5.502;2022-12-05T11:52:24;101266.72;;;3.31;98.92
51369;BME280;37459;51.416;5.502;2022-12-05T11:55:04;101244.63;;;3.21;98.58
51369;BME280;37459;51.416;5.502;2022-12-05T11:57:50;101265.03;;;3.30;98.90
51369;BME280;37459;51.416;5.502;2022-12-05T12:00:24;101260.00;;;3.27;98.79
51369;BME280;37459;51.416;5.502;2022-12-05T12:03:25;101261.94;;;3.17;98.39
51369;BME280;37459;51.416;5.502;2022-12-05T12:06:03;101264.19;;;3.12;98.47
51369;BME280;37459;51.416;5.502;2022-12-05T12:08:46;101256.34;;;3.10;98.92
51369;BME280;37459;51.416;5.502;2022-12-05T12:11:22;101255.81;;;3.06;98.85
51369;BME280;37459;51.416;5.502;2022-12-05T12:14:00;101262.13;;;3.05;99.24
51369;BME280;37459;51.416;5.502;2022-12-05T12:16:36;101262.13;;;3.05;99.72
51369;BME280;37459;51.416;5.502;2022-12-05T12:19:29;101267.06;;;3.00;100.00
51369;BME280;37459;51.416;5.502;2022-12-05T12:22:22;101259.69;;;2.94;99.87
51369;BME280;37459;51.416;5.502;2022-12-05T12:25:09;101259.53;;;2.96;100.00
51369;BME280;37459;51.416;5.502;2022-12-05T12:27:46;101263.09;;;2.86;100.00
51369;BME280;37459;51.416;5.502;2022-12-05T12:30:19;101257.47;;;2.90;100.00
51369;BME280;37459;51.416;5.502;2022-12-05T12:32:57;101258.84;;;2.94;100.00
51369;BME280;37459;51.416;5.502;2022-12-05T12:35:28;101255.19;;;2.95;100.00
51369;BME280;37459;51.416;5.502;2022-12-05T12:38:21;101258.69;;;2.95;100.00
51369;BME280;37459;51.416;5.502;2022-12-05T12:40:52;101255.03;;;2.96;99.95
51369;BME280;37459;51.416;5.502;2022-12-05T12:43:33;101254.53;;;3.11;100.00
51369;BME280;37459;51.416;5.502;2022-12-05T12:46:14;101243.88;;;3.11;100.00
51369;BME280;37459;51.416;5.502;2022-12-05T12:48:54;101249.13;;;3.02;100.00
51369;BME280;37459;51.416;5.502;2022-12-05T12:51:24;101242.88;;;2.94;99.99
51369;BME280;37459;51.416;5.502;2022-12-05T12:54:09;101242.50;;;2.88;99.93
51369;BME280;37459;51.416;5.502;2022-12-05T12:56:50;101246.06;;;2.97;99.93
51369;BME280;37459;51.416;5.502;2022-12-05T12:59:38;101239.28;;;3.03;100.00
51369;BME280;37459;51.416;5.502;2022-12-05T13:02:13;101243.09;;;3.00;99.81
51369;BME280;37459;51.416;5.502;2022-12-05T13:04:47;101242.03;;;2.93;99.28
51369;BME280;37459;51.416;5.502;2022-12-05T13:07:17;101243.09;;;3.00;99.59
51369;BME280;37459;51.416;5.502;2022-12-05T13:09:48;101232.59;;;2.99;99.29
51369;BME280;37459;51.416;5.502;2022-12-05T13:12:21;101238.38;;;2.94;98.67
51369;BME280;37459;51.416;5.502;2022-12-05T13:14:52;101233.50;;;2.90;99.17